Weiz, Austria
Current Conditions -  °F | °C
As of 5:20 PM on Sunday 28 Dec 2014 (Local Time) from LOWG Reporting Station
Overcast Overcast  
Wind Chill: 18°   Ceiling: 8000
Heat Index: 28°   Visibility: 6mi
Dew Point: 19°   Wind: 13mph
Humidity: 69%   Direction: 340°NNW
Pressure: 29.88"   Gusts: NA
Location:  47.22°N, 15.62°E
Report Text: LOWG 281620Z 34011KT 9999 FEW010 SCT035 OVC080 M02/M07 Q1012 R17/2///95 NOSIG
Loading
Personal Weather Stations






























Interactive Weather Map New forecast layout! Learn more

10-Day Weather Forecast

Advertisements
Track Severe Weather on mobile